Eakly, Oklahoma
Current Conditions -  °F | °C
As of 1:35 PM on Wednesday 17 Dec 2014 (Local Time) from KOJA Reporting Station
Overcast Overcast  
Wind Chill: 29°   Ceiling: 4600
Heat Index: 37°   Visibility: 10mi
Dew Point: 32°   Wind: 13mph
Humidity: 81%   Direction: 140°SE
Pressure: 30.11"   Gusts: NA
Location:  35.31°N, 98.56°W
Report Text: KOJA 171935Z AUTO 14011KT 10SM OVC046 03/00 A3011 RMK AO2 LTG DSNT SE AND S
Loading
Personal Weather Stations






























Interactive Weather Map New forecast layout! Learn more

10-Day Weather Forecast

Advertisements
Track Severe Weather on mobile